White Bird, Idaho
Current Conditions -  °F | °C
As of 8:15 PM on Thursday 27 Nov 2014 (Local Time) from KGIC Reporting Station
Scattered Clouds Scattered Clouds  
Wind Chill: 52°   Ceiling: Unl
Heat Index: 52°   Visibility: 10mi
Dew Point: 36°   Wind: 30mph
Humidity: 54%   Direction: 200°SSW
Pressure: 29.89"   Gusts: 43mph
Location:  45.76°N, 116.3°W
Report Text: KGIC 280415Z AUTO 20026G37KT 10SM SCT090 11/02 A2989 RMK AO1 T01100021
Loading
Personal Weather Stations






























Interactive Weather Map New forecast layout! Learn more

10-Day Weather Forecast

Advertisements
Track Severe Weather on mobile